createdAt,value
2022-12-15T00:03:30.348Z,4.8
2022-12-15T00:09:02.197Z,5.9
2022-12-15T00:14:34.654Z,7.2
2022-12-15T00:20:07.221Z,4.8
2022-12-15T00:25:55.277Z,3.6
2022-12-15T00:31:36.551Z,5.9
2022-12-15T00:42:38.820Z,0
2022-12-15T00:47:46.590Z,0
2022-12-15T00:53:32.959Z,0
2022-12-15T00:59:13.009Z,0
2022-12-15T01:04:29.458Z,0
2022-12-15T01:09:56.628Z,0
2022-12-15T01:15:36.717Z,2.4
2022-12-15T01:21:24.807Z,3.6
2022-12-15T01:26:29.875Z,2.4
2022-12-15T01:32:05.756Z,0
2022-12-15T01:38:01.990Z,0
2022-12-15T01:43:06.680Z,0
2022-12-15T01:48:47.220Z,0
2022-12-15T01:54:12.853Z,0
2022-12-15T01:59:53.228Z,0
2022-12-15T02:05:40.336Z,0
2022-12-15T02:10:52.952Z,0
2022-12-15T02:16:24.653Z,0
2022-12-15T02:21:51.586Z,2.4
2022-12-15T02:27:38.358Z,0
2022-12-15T02:33:11.087Z,2.4
2022-12-15T02:38:41.013Z,4.8
2022-12-15T02:44:16.692Z,0
2022-12-15T02:49:31.509Z,2.4
2022-12-15T02:55:06.873Z,0
2022-12-15T03:00:37.272Z,3.6
2022-12-15T03:06:31.826Z,3.6
2022-12-15T03:11:54.499Z,5.9
2022-12-15T03:17:19.657Z,4.8
2022-12-15T03:22:54.104Z,3.6
2022-12-15T03:28:23.994Z,3.6
2022-12-15T03:34:01.184Z,4.8
2022-12-15T03:39:30.513Z,0
2022-12-15T03:45:04.466Z,0
2022-12-15T03:50:45.162Z,0
2022-12-15T03:56:18.534Z,0
2022-12-15T04:01:29.642Z,4.8
2022-12-15T04:07:03.965Z,7.2
2022-12-15T04:12:42.157Z,8.4
2022-12-15T04:18:04.848Z,7.2
2022-12-15T04:23:40.119Z,8.4
2022-12-15T04:29:21.921Z,8.4
2022-12-15T04:35:02.916Z,7.2
2022-12-15T04:40:24.555Z,8.4
2022-12-15T04:45:59.557Z,8.4
2022-12-15T04:51:33.312Z,7.2
2022-12-15T04:57:00.128Z,2.4
2022-12-15T05:02:36.081Z,7.2
2022-12-15T05:08:21.238Z,4.8
2022-12-15T05:13:53.205Z,8.4
2022-12-15T05:19:01.332Z,9.6
2022-12-15T05:24:48.332Z,9.6
2022-12-15T05:30:05.254Z,5.9
2022-12-15T05:35:59.540Z,2.4
2022-12-15T05:41:21.278Z,4.8
2022-12-15T05:47:05.896Z,4.8
2022-12-15T05:52:21.364Z,9.6
2022-12-15T05:58:07.583Z,11.9
2022-12-15T06:09:15.904Z,8.4
2022-12-15T06:14:44.093Z,7.2
2022-12-15T06:20:18.442Z,4.8
2022-12-15T06:25:48.602Z,7.2
2022-12-15T06:31:15.609Z,10.7
2022-12-15T06:36:56.831Z,10.7
2022-12-15T06:42:32.329Z,11.9
2022-12-15T06:48:02.890Z,11.9
2022-12-15T06:53:25.905Z,10.7
2022-12-15T06:58:56.419Z,10.7
2022-12-15T07:04:16.833Z,10.7
2022-12-15T07:10:05.521Z,9.6
2022-12-15T07:15:44.779Z,10.7
2022-12-15T07:21:17.694Z,8.4
2022-12-15T07:26:37.610Z,8.4
2022-12-15T07:32:04.845Z,4.8
2022-12-15T07:37:48.299Z,4.8
2022-12-15T07:43:02.153Z,8.4
2022-12-15T07:48:58.329Z,9.6
2022-12-15T07:54:19.744Z,8.4
2022-12-15T07:59:42.226Z,8.4
2022-12-15T08:05:36.542Z,7.2
2022-12-15T08:10:49.693Z,5.9
2022-12-15T08:16:22.543Z,7.2
2022-12-15T08:22:12.055Z,9.6
2022-12-15T08:27:26.395Z,9.6
2022-12-15T08:33:10.190Z,8.4
2022-12-15T08:38:31.355Z,9.6
2022-12-15T08:44:01.691Z,8.4
2022-12-15T08:49:41.575Z,8.4
2022-12-15T08:55:07.334Z,9.6
2022-12-15T09:00:53.969Z,9.6
2022-12-15T09:06:15.508Z,10.7
2022-12-15T09:11:56.330Z,9.6
2022-12-15T09:17:16.377Z,5.9
2022-12-15T09:23:05.864Z,4.8
2022-12-15T09:28:34.650Z,3.6
2022-12-15T09:34:00.108Z,3.6
2022-12-15T09:39:41.155Z,5.9
2022-12-15T09:45:18.325Z,7.2
2022-12-15T09:50:42.074Z,9.6
2022-12-15T09:56:25.344Z,8.4
2022-12-15T10:01:40.826Z,9.6
2022-12-15T10:07:13.557Z,9.6
2022-12-15T10:13:00.067Z,11.9
2022-12-15T10:18:32.784Z,10.7
2022-12-15T10:23:41.103Z,11.9
2022-12-15T10:29:34.275Z,9.6
2022-12-15T10:35:05.131Z,8.4
2022-12-15T10:40:49.941Z,9.6
2022-12-15T10:46:12.434Z,8.4
2022-12-15T10:51:25.117Z,8.4
2022-12-15T10:57:24.401Z,8.4
2022-12-15T11:02:49.401Z,7.2
2022-12-15T11:08:19.439Z,8.4
2022-12-15T11:13:35.171Z,8.4
2022-12-15T11:19:14.781Z,9.6
2022-12-15T11:24:51.379Z,7.2
2022-12-15T11:30:27.219Z,10.7
2022-12-15T11:35:52.946Z,11.9
2022-12-15T11:41:27.690Z,10.7
2022-12-15T11:47:01.025Z,10.7
2022-12-15T11:52:42.043Z,9.6
2022-12-15T11:58:03.370Z,9.6
2022-12-15T12:03:39.731Z,13.2
2022-12-15T12:09:18.686Z,13.2
2022-12-15T12:14:41.131Z,10.7
2022-12-15T12:20:15.436Z,10.7
2022-12-15T12:25:39.668Z,11.9
2022-12-15T12:31:11.274Z,10.7
2022-12-15T12:37:10.390Z,11.9
2022-12-15T12:42:21.217Z,13.2
2022-12-15T12:48:05.937Z,13.2
2022-12-15T12:53:45.936Z,11.9
2022-12-15T12:59:13.806Z,10.7
2022-12-15T13:04:36.640Z,10.7
2022-12-15T13:10:18.376Z,11.9
2022-12-15T13:15:52.853Z,13.2
2022-12-15T13:21:15.779Z,11.9
2022-12-15T13:32:27.938Z,9.6
2022-12-15T13:37:39.596Z,8.4
2022-12-15T13:43:28.229Z,9.6
2022-12-15T13:49:04.938Z,10.7
2022-12-15T13:54:35.120Z,9.6
2022-12-15T14:00:01.385Z,9.6
2022-12-15T14:05:38.554Z,9.6
2022-12-15T14:11:29.669Z,9.6
2022-12-15T14:16:54.628Z,9.6
2022-12-15T14:22:13.525Z,9.6
2022-12-15T14:27:50.611Z,10.7
2022-12-15T14:33:32.873Z,9.6
2022-12-15T14:39:03.558Z,8.4
2022-12-15T14:44:31.046Z,10.7
2022-12-15T14:49:51.372Z,9.6
2022-12-15T14:55:31.762Z,10.7
2022-12-15T15:01:00.495Z,7.2
2022-12-15T15:06:52.263Z,8.4
2022-12-15T15:12:06.793Z,10.7
2022-12-15T15:17:32.774Z,8.4
2022-12-15T15:23:25.337Z,11.9
2022-12-15T15:28:42.199Z,11.9
2022-12-15T15:34:26.667Z,11.9
2022-12-15T15:40:06.268Z,11.9
2022-12-15T15:45:16.544Z,13.2
2022-12-15T15:51:01.740Z,10.7
2022-12-15T15:56:25.990Z,9.6
2022-12-15T16:01:55.455Z,7.2
2022-12-15T16:07:46.180Z,7.2
2022-12-15T16:12:53.881Z,7.2
2022-12-15T16:18:28.495Z,7.2
2022-12-15T16:24:17.993Z,8.4
2022-12-15T16:29:41.129Z,8.4
2022-12-15T16:35:29.019Z,8.4
2022-12-15T16:40:59.078Z,9.6
2022-12-15T16:46:11.286Z,11.9
2022-12-15T16:51:45.064Z,10.7
2022-12-15T16:57:22.526Z,9.6
2022-12-15T17:02:59.979Z,9.6
2022-12-15T17:08:18.472Z,9.6
2022-12-15T17:14:08.652Z,5.9
2022-12-15T17:19:27.257Z,5.9
2022-12-15T17:25:31.984Z,7.2
2022-12-15T17:30:30.158Z,7.2
2022-12-15T17:36:06.438Z,7.2
2022-12-15T17:42:03.005Z,7.2
2022-12-15T17:47:28.531Z,7.2
2022-12-15T17:52:51.893Z,8.4
2022-12-15T17:58:33.242Z,7.2
2022-12-15T18:03:47.933Z,4.8
2022-12-15T18:09:30.878Z,3.6
2022-12-15T18:14:52.950Z,4.8
2022-12-15T18:20:26.913Z,3.6
2022-12-15T18:26:02.835Z,4.8
2022-12-15T18:31:48.830Z,5.9
2022-12-15T18:37:10.536Z,8.4
2022-12-15T18:42:50.716Z,8.4
2022-12-15T18:48:15.868Z,5.9
2022-12-15T18:53:41.085Z,7.2
2022-12-15T18:59:11.395Z,7.2
2022-12-15T19:04:55.944Z,8.4
2022-12-15T19:10:23.152Z,7.2
2022-12-15T19:15:45.633Z,8.4
2022-12-15T19:21:20.343Z,7.2
2022-12-15T19:26:56.298Z,7.2
2022-12-15T19:32:23.965Z,5.9
2022-12-15T19:37:57.945Z,7.2
2022-12-15T19:43:42.412Z,7.2
2022-12-15T19:49:09.137Z,7.2
2022-12-15T19:54:47.433Z,4.8
2022-12-15T20:00:06.440Z,4.8
2022-12-15T20:05:56.794Z,7.2
2022-12-15T20:11:20.480Z,4.8
2022-12-15T20:16:59.934Z,5.9
2022-12-15T20:22:26.586Z,5.9
2022-12-15T20:27:50.986Z,4.8
2022-12-15T20:33:25.368Z,5.9
2022-12-15T20:38:52.713Z,7.2
2022-12-15T20:44:34.759Z,5.9
2022-12-15T20:49:50.781Z,4.8
2022-12-15T20:55:21.873Z,3.6
2022-12-15T21:01:22.672Z,4.8
2022-12-15T21:06:36.903Z,3.6
2022-12-15T21:12:09.080Z,3.6
2022-12-15T21:17:33.611Z,5.9
2022-12-15T21:23:15.628Z,5.9
2022-12-15T21:28:52.309Z,5.9
2022-12-15T21:34:32.357Z,7.2
2022-12-15T21:39:49.706Z,7.2
2022-12-15T21:45:16.173Z,7.2
2022-12-15T21:51:01.342Z,5.9
2022-12-15T21:56:41.981Z,7.2
2022-12-15T22:02:14.949Z,5.9
2022-12-15T22:07:31.260Z,5.9
2022-12-15T22:13:06.310Z,5.9
2022-12-15T22:18:31.193Z,7.2
2022-12-15T22:24:08.407Z,7.2
2022-12-15T22:29:57.292Z,5.9
2022-12-15T22:35:32.266Z,4.8
2022-12-15T22:40:45.099Z,3.6
2022-12-15T22:46:37.094Z,3.6
2022-12-15T22:52:08.117Z,4.8
2022-12-15T22:57:38.610Z,3.6
2022-12-15T23:03:00.389Z,7.2
2022-12-15T23:08:31.946Z,5.9
2022-12-15T23:14:03.176Z,4.8
2022-12-15T23:19:27.288Z,5.9
2022-12-15T23:25:21.136Z,7.2
2022-12-15T23:30:46.554Z,8.4
2022-12-15T23:36:26.913Z,7.2
2022-12-15T23:41:59.301Z,7.2
2022-12-15T23:47:03.599Z,7.2
2022-12-15T23:52:51.725Z,5.9
2022-12-15T23:58:07.029Z,5.9
